Latest Weather Forecast - Friday 22nd January 2021 (6 pm)

Forecast Period: 

 6 pm  22nd January 2021 to 6 am  23rd January 2021 

Synopsis:

 No significant feature across our islands

Forecast:

 Fair and hazy; becoming partly cloudy and breezy at times, with isolated showers  

Weather   Advisory/Warning:

 None

Winds:

 ENE – E at 20 – 35 km/h (12 – 22 mph)     

Sea Conditions:

 Slight to moderate in open water; east north-easterly swells (1.2 – 1.8 m) 

Marine Advisory/Warning:

None

Upcoming Tides:
 High: **** 01:31 am  02:00 pm
 Low:

06:08 pm (22nd)

10:11 am

06:16 pm

Aviation WX

[Source: ADDS]
METAR
TVSA 280100Z 06017KT 030V090 9999 SCT018 25/21 Q1014 =
TVSA 272300Z 2800/2824 07014KT 9999 SCT018
TAF
TVSA 272300Z 2800/2824 07014KT 9999 SCT018 =
SR / SS: 10:20 / 22:13 UTC (Sunrise Sunset 2021-02-28)